sensor_id;sensor_type;location;lat;lon;timestamp;temperature;humidity
2010;DHT22;1008;47.404;8.502;2024-03-02T00:01:59;8.00;99.90
2010;DHT22;1008;47.404;8.502;2024-03-02T00:04:27;7.90;99.90
2010;DHT22;1008;47.404;8.502;2024-03-02T00:06:54;7.80;99.90
2010;DHT22;1008;47.404;8.502;2024-03-02T00:09:21;7.70;99.90
2010;DHT22;1008;47.404;8.502;2024-03-02T00:11:47;7.50;99.90
2010;DHT22;1008;47.404;8.502;2024-03-02T00:14:14;7.70;99.90
2010;DHT22;1008;47.404;8.502;2024-03-02T00:16:42;7.70;99.90
2010;DHT22;1008;47.404;8.502;2024-03-02T00:19:09;7.50;99.90
2010;DHT22;1008;47.404;8.502;2024-03-02T00:21:37;7.50;99.90
2010;DHT22;1008;47.404;8.502;2024-03-02T00:24:09;7.60;99.90
2010;DHT22;1008;47.404;8.502;2024-03-02T00:26:44;7.70;99.90
2010;DHT22;1008;47.404;8.502;2024-03-02T00:29:13;7.60;99.90
2010;DHT22;1008;47.404;8.502;2024-03-02T00:31:42;7.60;99.90
2010;DHT22;1008;47.404;8.502;2024-03-02T00:34:12;7.70;99.90
2010;DHT22;1008;47.404;8.502;2024-03-02T00:36:43;7.70;99.90
2010;DHT22;1008;47.404;8.502;2024-03-02T00:39:12;7.80;99.90
2010;DHT22;1008;47.404;8.502;2024-03-02T00:41:41;7.60;99.90
2010;DHT22;1008;47.404;8.502;2024-03-02T00:44:10;7.70;99.90
2010;DHT22;1008;47.404;8.502;2024-03-02T00:46:39;7.70;99.90
2010;DHT22;1008;47.404;8.502;2024-03-02T00:49:12;7.70;99.90
2010;DHT22;1008;47.404;8.502;2024-03-02T00:51:47;7.70;99.90
2010;DHT22;1008;47.404;8.502;2024-03-02T00:54:15;7.60;99.90
2010;DHT22;1008;47.404;8.502;2024-03-02T00:56:42;7.70;99.90
2010;DHT22;1008;47.404;8.502;2024-03-02T00:59:10;7.80;99.90
2010;DHT22;1008;47.404;8.502;2024-03-02T01:01:37;7.80;99.90
2010;DHT22;1008;47.404;8.502;2024-03-02T01:04:04;7.70;99.90
2010;DHT22;1008;47.404;8.502;2024-03-02T01:06:30;7.60;99.90
2010;DHT22;1008;47.404;8.502;2024-03-02T01:08:58;7.50;99.90
2010;DHT22;1008;47.404;8.502;2024-03-02T01:11:25;7.50;99.90
2010;DHT22;1008;47.404;8.502;2024-03-02T01:13:52;7.40;99.90
2010;DHT22;1008;47.404;8.502;2024-03-02T01:16:19;7.30;99.90
2010;DHT22;1008;47.404;8.502;2024-03-02T01:18:45;7.20;99.90
2010;DHT22;1008;47.404;8.502;2024-03-02T01:21:12;7.30;99.90
2010;DHT22;1008;47.404;8.502;2024-03-02T01:23:39;7.30;99.90
2010;DHT22;1008;47.404;8.502;2024-03-02T01:26:07;7.50;99.90
2010;DHT22;1008;47.404;8.502;2024-03-02T01:28:34;7.20;99.90
2010;DHT22;1008;47.404;8.502;2024-03-02T01:31:00;7.30;99.90
2010;DHT22;1008;47.404;8.502;2024-03-02T01:33:27;7.30;99.90
2010;DHT22;1008;47.404;8.502;2024-03-02T01:35:54;7.30;99.90
2010;DHT22;1008;47.404;8.502;2024-03-02T01:38:20;7.30;99.90
2010;DHT22;1008;47.404;8.502;2024-03-02T01:40:47;7.40;99.90
2010;DHT22;1008;47.404;8.502;2024-03-02T01:43:15;7.50;99.90
2010;DHT22;1008;47.404;8.502;2024-03-02T01:45:42;7.50;99.90
2010;DHT22;1008;47.404;8.502;2024-03-02T01:48:09;7.50;99.90
2010;DHT22;1008;47.404;8.502;2024-03-02T01:50:36;7.30;99.90
2010;DHT22;1008;47.404;8.502;2024-03-02T01:53:03;7.30;99.90
2010;DHT22;1008;47.404;8.502;2024-03-02T01:55:30;7.30;99.90
2010;DHT22;1008;47.404;8.502;2024-03-02T01:57:58;7.10;99.90
2010;DHT22;1008;47.404;8.502;2024-03-02T02:00:26;7.00;99.90
2010;DHT22;1008;47.404;8.502;2024-03-02T02:02:54;7.20;99.90
2010;DHT22;1008;47.404;8.502;2024-03-02T02:05:20;7.20;99.90
2010;DHT22;1008;47.404;8.502;2024-03-02T02:07:47;7.20;99.90
2010;DHT22;1008;47.404;8.502;2024-03-02T02:10:14;7.10;99.90
2010;DHT22;1008;47.404;8.502;2024-03-02T02:12:41;6.90;99.90
2010;DHT22;1008;47.404;8.502;2024-03-02T02:15:26;7.00;99.90
2010;DHT22;1008;47.404;8.502;2024-03-02T02:17:53;7.00;99.90
2010;DHT22;1008;47.404;8.502;2024-03-02T02:20:19;7.00;99.90
2010;DHT22;1008;47.404;8.502;2024-03-02T02:22:55;7.10;99.90
2010;DHT22;1008;47.404;8.502;2024-03-02T02:25:22;7.20;99.90
2010;DHT22;1008;47.404;8.502;2024-03-02T02:27:49;7.20;99.90
2010;DHT22;1008;47.404;8.502;2024-03-02T02:30:18;7.20;99.90
2010;DHT22;1008;47.404;8.502;2024-03-02T02:32:46;7.20;99.90
2010;DHT22;1008;47.404;8.502;2024-03-02T02:35:13;7.30;99.90
2010;DHT22;1008;47.404;8.502;2024-03-02T02:37:40;7.30;99.90
2010;DHT22;1008;47.404;8.502;2024-03-02T02:40:09;7.10;99.90
2010;DHT22;1008;47.404;8.502;2024-03-02T02:42:36;6.90;99.90
2010;DHT22;1008;47.404;8.502;2024-03-02T02:45:03;6.90;99.90
2010;DHT22;1008;47.404;8.502;2024-03-02T02:47:29;6.90;99.90
2010;DHT22;1008;47.404;8.502;2024-03-02T02:49:56;6.80;99.90
2010;DHT22;1008;47.404;8.502;2024-03-02T02:52:23;6.80;99.90
2010;DHT22;1008;47.404;8.502;2024-03-02T02:54:50;6.60;99.90
2010;DHT22;1008;47.404;8.502;2024-03-02T02:57:19;6.70;99.90
2010;DHT22;1008;47.404;8.502;2024-03-02T02:59:46;6.60;99.90
2010;DHT22;1008;47.404;8.502;2024-03-02T03:02:13;6.30;99.90
2010;DHT22;1008;47.404;8.502;2024-03-02T03:04:40;6.60;99.90
2010;DHT22;1008;47.404;8.502;2024-03-02T03:07:06;6.60;99.90
2010;DHT22;1008;47.404;8.502;2024-03-02T03:09:33;6.60;99.90
2010;DHT22;1008;47.404;8.502;2024-03-02T03:12:04;6.60;99.90
2010;DHT22;1008;47.404;8.502;2024-03-02T03:14:32;6.70;99.90
2010;DHT22;1008;47.404;8.502;2024-03-02T03:17:00;6.60;99.90
2010;DHT22;1008;47.404;8.502;2024-03-02T03:19:27;6.50;99.90
2010;DHT22;1008;47.404;8.502;2024-03-02T03:21:54;6.40;99.90
2010;DHT22;1008;47.404;8.502;2024-03-02T03:24:20;6.60;99.90
2010;DHT22;1008;47.404;8.502;2024-03-02T03:26:47;6.70;99.90
2010;DHT22;1008;47.404;8.502;2024-03-02T03:29:14;6.70;99.90
2010;DHT22;1008;47.404;8.502;2024-03-02T03:31:42;6.70;99.90
2010;DHT22;1008;47.404;8.502;2024-03-02T03:34:08;6.70;99.90
2010;DHT22;1008;47.404;8.502;2024-03-02T03:36:35;6.70;99.90
2010;DHT22;1008;47.404;8.502;2024-03-02T03:39:03;6.60;99.90
2010;DHT22;1008;47.404;8.502;2024-03-02T03:41:31;6.50;99.90
2010;DHT22;1008;47.404;8.502;2024-03-02T03:43:58;6.50;99.90
2010;DHT22;1008;47.404;8.502;2024-03-02T03:46:25;6.50;99.90
2010;DHT22;1008;47.404;8.502;2024-03-02T03:48:53;6.60;99.90
2010;DHT22;1008;47.404;8.502;2024-03-02T03:51:21;6.60;99.90
2010;DHT22;1008;47.404;8.502;2024-03-02T03:53:48;6.50;99.90
2010;DHT22;1008;47.404;8.502;2024-03-02T03:56:16;6.50;99.90
2010;DHT22;1008;47.404;8.502;2024-03-02T03:58:43;6.70;99.90
2010;DHT22;1008;47.404;8.502;2024-03-02T04:01:09;6.80;99.90
2010;DHT22;1008;47.404;8.502;2024-03-02T04:03:36;6.80;99.90
2010;DHT22;1008;47.404;8.502;2024-03-02T04:06:05;6.80;99.90
2010;DHT22;1008;47.404;8.502;2024-03-02T04:08:32;6.80;99.90
2010;DHT22;1008;47.404;8.502;2024-03-02T04:10:59;6.80;99.90
2010;DHT22;1008;47.404;8.502;2024-03-02T04:13:25;6.80;99.90
2010;DHT22;1008;47.404;8.502;2024-03-02T04:15:52;6.70;99.90
2010;DHT22;1008;47.404;8.502;2024-03-02T04:18:20;6.70;99.90
2010;DHT22;1008;47.404;8.502;2024-03-02T04:20:47;6.60;99.90
2010;DHT22;1008;47.404;8.502;2024-03-02T04:23:15;6.60;99.90
2010;DHT22;1008;47.404;8.502;2024-03-02T04:25:41;6.60;99.90
2010;DHT22;1008;47.404;8.502;2024-03-02T04:28:08;6.60;99.90
2010;DHT22;1008;47.404;8.502;2024-03-02T04:30:35;6.50;99.90
2010;DHT22;1008;47.404;8.502;2024-03-02T04:33:01;6.50;99.90
2010;DHT22;1008;47.404;8.502;2024-03-02T04:35:29;6.50;99.90
2010;DHT22;1008;47.404;8.502;2024-03-02T04:37:55;6.60;99.90
2010;DHT22;1008;47.404;8.502;2024-03-02T04:40:23;6.60;99.90
2010;DHT22;1008;47.404;8.502;2024-03-02T04:42:50;6.40;99.90
2010;DHT22;1008;47.404;8.502;2024-03-02T04:45:17;6.50;99.90
2010;DHT22;1008;47.404;8.502;2024-03-02T04:47:43;6.50;99.90
2010;DHT22;1008;47.404;8.502;2024-03-02T04:50:10;6.40;99.90
2010;DHT22;1008;47.404;8.502;2024-03-02T04:52:37;6.10;99.90
2010;DHT22;1008;47.404;8.502;2024-03-02T04:55:05;5.90;99.90
2010;DHT22;1008;47.404;8.502;2024-03-02T04:57:56;5.90;99.90
2010;DHT22;1008;47.404;8.502;2024-03-02T05:00:23;5.90;99.90
2010;DHT22;1008;47.404;8.502;2024-03-02T05:02:50;5.80;99.90
2010;DHT22;1008;47.404;8.502;2024-03-02T05:05:16;5.90;99.90
2010;DHT22;1008;47.404;8.502;2024-03-02T05:07:43;5.90;99.90
2010;DHT22;1008;47.404;8.502;2024-03-02T05:10:10;5.80;99.90
2010;DHT22;1008;47.404;8.502;2024-03-02T05:12:37;5.80;99.90
2010;DHT22;1008;47.404;8.502;2024-03-02T05:15:23;6.00;99.90
2010;DHT22;1008;47.404;8.502;2024-03-02T05:17:50;6.20;99.90
2010;DHT22;1008;47.404;8.502;2024-03-02T05:20:17;6.30;99.90
2010;DHT22;1008;47.404;8.502;2024-03-02T05:22:44;6.40;99.90
2010;DHT22;1008;47.404;8.502;2024-03-02T05:25:10;6.30;99.90
2010;DHT22;1008;47.404;8.502;2024-03-02T05:27:37;6.30;99.90
2010;DHT22;1008;47.404;8.502;2024-03-02T05:30:05;6.30;99.90
2010;DHT22;1008;47.404;8.502;2024-03-02T05:32:34;6.40;99.90
2010;DHT22;1008;47.404;8.502;2024-03-02T05:35:00;6.40;99.90
2010;DHT22;1008;47.404;8.502;2024-03-02T05:37:28;6.40;99.90
2010;DHT22;1008;47.404;8.502;2024-03-02T05:39:55;6.20;99.90
2010;DHT22;1008;47.404;8.502;2024-03-02T05:42:21;6.10;99.90
2010;DHT22;1008;47.404;8.502;2024-03-02T05:44:48;6.10;99.90
2010;DHT22;1008;47.404;8.502;2024-03-02T05:47:15;6.20;99.90
2010;DHT22;1008;47.404;8.502;2024-03-02T05:49:43;6.50;99.90
2010;DHT22;1008;47.404;8.502;2024-03-02T05:52:10;6.50;99.90
2010;DHT22;1008;47.404;8.502;2024-03-02T05:54:37;6.60;99.90
2010;DHT22;1008;47.404;8.502;2024-03-02T05:57:04;6.40;99.90
2010;DHT22;1008;47.404;8.502;2024-03-02T05:59:52;6.40;99.90
2010;DHT22;1008;47.404;8.502;2024-03-02T06:02:19;6.30;99.90
2010;DHT22;1008;47.404;8.502;2024-03-02T06:04:47;6.40;99.90
2010;DHT22;1008;47.404;8.502;2024-03-02T06:07:13;6.30;99.90
2010;DHT22;1008;47.404;8.502;2024-03-02T06:09:41;6.30;99.90
2010;DHT22;1008;47.404;8.502;2024-03-02T06:12:08;6.70;99.90
2010;DHT22;1008;47.404;8.502;2024-03-02T06:14:34;7.00;99.90
2010;DHT22;1008;47.404;8.502;2024-03-02T06:17:01;7.40;99.90
2010;DHT22;1008;47.404;8.502;2024-03-02T06:19:28;7.60;99.90
2010;DHT22;1008;47.404;8.502;2024-03-02T06:21:56;7.70;99.90
2010;DHT22;1008;47.404;8.502;2024-03-02T06:24:23;7.80;99.90
2010;DHT22;1008;47.404;8.502;2024-03-02T06:26:51;7.90;99.90
2010;DHT22;1008;47.404;8.502;2024-03-02T06:29:18;7.80;99.90
2010;DHT22;1008;47.404;8.502;2024-03-02T06:31:45;7.70;99.90
2010;DHT22;1008;47.404;8.502;2024-03-02T06:34:11;7.50;99.90
2010;DHT22;1008;47.404;8.502;2024-03-02T06:36:38;7.20;99.90
2010;DHT22;1008;47.404;8.502;2024-03-02T06:39:08;7.10;99.90
2010;DHT22;1008;47.404;8.502;2024-03-02T06:41:35;7.00;99.90
2010;DHT22;1008;47.404;8.502;2024-03-02T06:44:02;6.60;99.90
2010;DHT22;1008;47.404;8.502;2024-03-02T06:46:29;6.40;99.90
2010;DHT22;1008;47.404;8.502;2024-03-02T06:48:56;6.20;99.90
2010;DHT22;1008;47.404;8.502;2024-03-02T06:51:22;6.20;99.90
2010;DHT22;1008;47.404;8.502;2024-03-02T06:53:49;6.30;99.90
2010;DHT22;1008;47.404;8.502;2024-03-02T06:56:17;6.60;99.90
2010;DHT22;1008;47.404;8.502;2024-03-02T06:58:44;6.70;99.90
2010;DHT22;1008;47.404;8.502;2024-03-02T07:01:10;6.90;99.90
2010;DHT22;1008;47.404;8.502;2024-03-02T07:03:37;6.90;99.90
2010;DHT22;1008;47.404;8.502;2024-03-02T07:06:04;6.90;99.90
2010;DHT22;1008;47.404;8.502;2024-03-02T07:08:31;6.90;99.90
2010;DHT22;1008;47.404;8.502;2024-03-02T07:10:58;7.00;99.90
2010;DHT22;1008;47.404;8.502;2024-03-02T07:13:26;7.00;99.90
2010;DHT22;1008;47.404;8.502;2024-03-02T07:15:53;7.10;99.90
2010;DHT22;1008;47.404;8.502;2024-03-02T07:18:37;6.80;99.90
2010;DHT22;1008;47.404;8.502;2024-03-02T07:21:07;6.60;99.90
2010;DHT22;1008;47.404;8.502;2024-03-02T07:23:34;6.60;99.90
2010;DHT22;1008;47.404;8.502;2024-03-02T07:26:01;6.50;99.90
2010;DHT22;1008;47.404;8.502;2024-03-02T07:28:28;6.70;99.90
2010;DHT22;1008;47.404;8.502;2024-03-02T07:30:58;6.70;99.90
2010;DHT22;1008;47.404;8.502;2024-03-02T07:33:25;6.80;99.90
2010;DHT22;1008;47.404;8.502;2024-03-02T07:35:52;6.90;99.90
2010;DHT22;1008;47.404;8.502;2024-03-02T07:38:19;7.00;99.90
2010;DHT22;1008;47.404;8.502;2024-03-02T07:40:45;7.10;99.90
2010;DHT22;1008;47.404;8.502;2024-03-02T07:43:12;7.20;99.90
2010;DHT22;1008;47.404;8.502;2024-03-02T07:45:40;7.10;99.90
2010;DHT22;1008;47.404;8.502;2024-03-02T07:48:07;7.10;99.90
2010;DHT22;1008;47.404;8.502;2024-03-02T07:50:34;7.00;99.90
2010;DHT22;1008;47.404;8.502;2024-03-02T07:53:00;6.90;99.90
2010;DHT22;1008;47.404;8.502;2024-03-02T07:55:27;7.20;99.90
2010;DHT22;1008;47.404;8.502;2024-03-02T07:57:54;7.20;99.90
2010;DHT22;1008;47.404;8.502;2024-03-02T08:00:21;7.10;99.90
2010;DHT22;1008;47.404;8.502;2024-03-02T08:02:50;7.20;99.90
2010;DHT22;1008;47.404;8.502;2024-03-02T08:05:17;7.10;99.90
2010;DHT22;1008;47.404;8.502;2024-03-02T08:07:45;7.20;99.90
2010;DHT22;1008;47.404;8.502;2024-03-02T08:10:12;7.30;99.90
2010;DHT22;1008;47.404;8.502;2024-03-02T08:12:39;7.20;99.90
2010;DHT22;1008;47.404;8.502;2024-03-02T08:15:06;7.30;99.90
2010;DHT22;1008;47.404;8.502;2024-03-02T08:17:33;7.40;99.90
2010;DHT22;1008;47.404;8.502;2024-03-02T08:20:01;7.50;99.90
2010;DHT22;1008;47.404;8.502;2024-03-02T08:22:28;7.50;99.90
2010;DHT22;1008;47.404;8.502;2024-03-02T08:24:55;7.50;99.90
2010;DHT22;1008;47.404;8.502;2024-03-02T08:27:21;7.50;99.90
2010;DHT22;1008;47.404;8.502;2024-03-02T08:29:48;7.60;99.90
2010;DHT22;1008;47.404;8.502;2024-03-02T08:32:15;7.80;99.90
2010;DHT22;1008;47.404;8.502;2024-03-02T08:34:43;7.70;99.90
2010;DHT22;1008;47.404;8.502;2024-03-02T08:37:11;7.60;99.90
2010;DHT22;1008;47.404;8.502;2024-03-02T08:39:38;7.50;99.90
2010;DHT22;1008;47.404;8.502;2024-03-02T08:42:05;7.30;99.90
2010;DHT22;1008;47.404;8.502;2024-03-02T08:44:32;7.50;99.90
2010;DHT22;1008;47.404;8.502;2024-03-02T08:46:59;7.60;99.90
2010;DHT22;1008;47.404;8.502;2024-03-02T08:49:25;7.60;99.90
2010;DHT22;1008;47.404;8.502;2024-03-02T08:51:52;7.50;99.90
2010;DHT22;1008;47.404;8.502;2024-03-02T08:54:22;7.60;99.90
2010;DHT22;1008;47.404;8.502;2024-03-02T08:56:48;7.70;99.90
2010;DHT22;1008;47.404;8.502;2024-03-02T08:59:15;7.50;99.90
2010;DHT22;1008;47.404;8.502;2024-03-02T09:01:42;7.70;99.90
2010;DHT22;1008;47.404;8.502;2024-03-02T09:04:10;7.80;99.90
2010;DHT22;1008;47.404;8.502;2024-03-02T09:06:37;7.50;99.90
2010;DHT22;1008;47.404;8.502;2024-03-02T09:09:03;7.70;99.90
2010;DHT22;1008;47.404;8.502;2024-03-02T09:11:33;7.70;99.90
2010;DHT22;1008;47.404;8.502;2024-03-02T09:14:01;7.90;99.90
2010;DHT22;1008;47.404;8.502;2024-03-02T09:16:28;7.90;99.90
2010;DHT22;1008;47.404;8.502;2024-03-02T09:18:56;7.70;99.90
2010;DHT22;1008;47.404;8.502;2024-03-02T09:21:22;7.60;99.90
2010;DHT22;1008;47.404;8.502;2024-03-02T09:23:51;7.80;99.90
2010;DHT22;1008;47.404;8.502;2024-03-02T09:26:17;8.00;99.90
2010;DHT22;1008;47.404;8.502;2024-03-02T09:28:46;8.20;99.90
2010;DHT22;1008;47.404;8.502;2024-03-02T09:31:13;8.40;99.90
2010;DHT22;1008;47.404;8.502;2024-03-02T09:33:40;8.30;99.90
2010;DHT22;1008;47.404;8.502;2024-03-02T09:36:16;8.20;99.90
2010;DHT22;1008;47.404;8.502;2024-03-02T09:38:43;8.40;99.90
2010;DHT22;1008;47.404;8.502;2024-03-02T09:41:10;7.90;99.90
2010;DHT22;1008;47.404;8.502;2024-03-02T09:43:37;7.90;99.90
2010;DHT22;1008;47.404;8.502;2024-03-02T09:46:05;7.50;99.90
2010;DHT22;1008;47.404;8.502;2024-03-02T09:48:33;7.80;99.90
2010;DHT22;1008;47.404;8.502;2024-03-02T09:51:00;8.20;99.90
2010;DHT22;1008;47.404;8.502;2024-03-02T09:53:31;8.60;99.90
2010;DHT22;1008;47.404;8.502;2024-03-02T09:55:59;8.60;99.90
2010;DHT22;1008;47.404;8.502;2024-03-02T09:58:25;8.60;99.90
2010;DHT22;1008;47.404;8.502;2024-03-02T10:00:52;8.80;99.90
2010;DHT22;1008;47.404;8.502;2024-03-02T10:03:20;9.00;99.90
2010;DHT22;1008;47.404;8.502;2024-03-02T10:05:49;8.90;99.90
2010;DHT22;1008;47.404;8.502;2024-03-02T10:08:17;8.80;99.90
2010;DHT22;1008;47.404;8.502;2024-03-02T10:10:44;8.60;99.90
2010;DHT22;1008;47.404;8.502;2024-03-02T10:13:13;8.90;99.90
2010;DHT22;1008;47.404;8.502;2024-03-02T10:15:40;8.50;99.90
2010;DHT22;1008;47.404;8.502;2024-03-02T10:18:09;8.50;99.90
2010;DHT22;1008;47.404;8.502;2024-03-02T10:20:39;8.60;99.90
2010;DHT22;1008;47.404;8.502;2024-03-02T10:23:12;8.40;99.90
2010;DHT22;1008;47.404;8.502;2024-03-02T10:25:40;8.60;99.90
2010;DHT22;1008;47.404;8.502;2024-03-02T10:28:07;8.40;99.90
2010;DHT22;1008;47.404;8.502;2024-03-02T10:30:33;8.50;99.90
2010;DHT22;1008;47.404;8.502;2024-03-02T10:33:00;8.50;99.90
2010;DHT22;1008;47.404;8.502;2024-03-02T10:35:28;8.40;99.90
2010;DHT22;1008;47.404;8.502;2024-03-02T10:37:58;8.60;99.90
2010;DHT22;1008;47.404;8.502;2024-03-02T10:40:26;8.70;99.90
2010;DHT22;1008;47.404;8.502;2024-03-02T10:42:53;8.60;99.90
2010;DHT22;1008;47.404;8.502;2024-03-02T10:45:20;8.70;99.90
2010;DHT22;1008;47.404;8.502;2024-03-02T10:47:48;8.70;99.90
2010;DHT22;1008;47.404;8.502;2024-03-02T10:50:14;9.00;99.90
2010;DHT22;1008;47.404;8.502;2024-03-02T10:52:41;8.80;99.90
2010;DHT22;1008;47.404;8.502;2024-03-02T10:55:10;8.90;99.90
2010;DHT22;1008;47.404;8.502;2024-03-02T10:57:42;9.00;99.90
2010;DHT22;1008;47.404;8.502;2024-03-02T11:00:12;9.50;99.90
2010;DHT22;1008;47.404;8.502;2024-03-02T11:02:42;10.10;99.90
2010;DHT22;1008;47.404;8.502;2024-03-02T11:05:13;10.90;99.90
2010;DHT22;1008;47.404;8.502;2024-03-02T11:07:45;11.10;99.90
2010;DHT22;1008;47.404;8.502;2024-03-02T11:10:13;11.50;99.90
2010;DHT22;1008;47.404;8.502;2024-03-02T11:12:47;11.50;99.90
2010;DHT22;1008;47.404;8.502;2024-03-02T11:15:17;11.50;99.90
2010;DHT22;1008;47.404;8.502;2024-03-02T11:17:45;11.30;99.90
2010;DHT22;1008;47.404;8.502;2024-03-02T11:20:13;11.50;99.90
2010;DHT22;1008;47.404;8.502;2024-03-02T11:22:41;11.10;99.90
2010;DHT22;1008;47.404;8.502;2024-03-02T11:25:23;11.30;99.90
2010;DHT22;1008;47.404;8.502;2024-03-02T11:28:01;11.50;99.90
2010;DHT22;1008;47.404;8.502;2024-03-02T11:30:50;11.60;99.90
2010;DHT22;1008;47.404;8.502;2024-03-02T11:33:26;12.10;99.90
2010;DHT22;1008;47.404;8.502;2024-03-02T11:35:57;12.50;99.90
2010;DHT22;1008;47.404;8.502;2024-03-02T11:38:32;13.00;99.90
2010;DHT22;1008;47.404;8.502;2024-03-02T11:41:01;13.40;99.90
2010;DHT22;1008;47.404;8.502;2024-03-02T11:43:29;13.90;99.90
2010;DHT22;1008;47.404;8.502;2024-03-02T11:46:00;14.00;99.90
2010;DHT22;1008;47.404;8.502;2024-03-02T11:48:30;14.40;99.90
2010;DHT22;1008;47.404;8.502;2024-03-02T11:50:58;14.30;99.90
2010;DHT22;1008;47.404;8.502;2024-03-02T11:53:26;14.10;99.90
2010;DHT22;1008;47.404;8.502;2024-03-02T11:55:55;13.80;99.90
2010;DHT22;1008;47.404;8.502;2024-03-02T11:58:23;13.80;99.90
2010;DHT22;1008;47.404;8.502;2024-03-02T12:00:52;13.50;99.90
2010;DHT22;1008;47.404;8.502;2024-03-02T12:03:21;13.40;99.90
2010;DHT22;1008;47.404;8.502;2024-03-02T12:05:49;13.10;99.90
2010;DHT22;1008;47.404;8.502;2024-03-02T12:08:16;13.00;99.90
2010;DHT22;1008;47.404;8.502;2024-03-02T12:10:43;13.60;99.90
2010;DHT22;1008;47.404;8.502;2024-03-02T12:13:23;14.10;99.90
2010;DHT22;1008;47.404;8.502;2024-03-02T12:15:53;13.50;99.90
2010;DHT22;1008;47.404;8.502;2024-03-02T12:18:20;13.40;99.90
2010;DHT22;1008;47.404;8.502;2024-03-02T12:20:48;14.30;99.90
2010;DHT22;1008;47.404;8.502;2024-03-02T12:23:16;14.90;99.90
2010;DHT22;1008;47.404;8.502;2024-03-02T12:25:42;15.00;99.90
2010;DHT22;1008;47.404;8.502;2024-03-02T12:28:09;14.40;99.90
2010;DHT22;1008;47.404;8.502;2024-03-02T12:30:38;14.20;99.90
2010;DHT22;1008;47.404;8.502;2024-03-02T12:33:05;14.10;99.90
2010;DHT22;1008;47.404;8.502;2024-03-02T12:35:32;14.50;99.90
2010;DHT22;1008;47.404;8.502;2024-03-02T12:37:58;14.40;99.90
2010;DHT22;1008;47.404;8.502;2024-03-02T12:40:25;14.70;99.90
2010;DHT22;1008;47.404;8.502;2024-03-02T12:42:52;15.20;99.90
2010;DHT22;1008;47.404;8.502;2024-03-02T12:45:20;15.50;99.90
2010;DHT22;1008;47.404;8.502;2024-03-02T12:47:50;15.80;99.90
2010;DHT22;1008;47.404;8.502;2024-03-02T12:50:17;16.10;99.90
2010;DHT22;1008;47.404;8.502;2024-03-02T12:52:51;16.50;99.90
2010;DHT22;1008;47.404;8.502;2024-03-02T12:55:20;16.60;99.90
2010;DHT22;1008;47.404;8.502;2024-03-02T12:57:47;16.40;99.90
2010;DHT22;1008;47.404;8.502;2024-03-02T13:00:14;16.60;99.90
2010;DHT22;1008;47.404;8.502;2024-03-02T13:02:41;16.70;99.90
2010;DHT22;1008;47.404;8.502;2024-03-02T13:05:09;16.50;99.90
2010;DHT22;1008;47.404;8.502;2024-03-02T13:07:37;16.20;99.90
2010;DHT22;1008;47.404;8.502;2024-03-02T13:10:04;15.90;99.90
2010;DHT22;1008;47.404;8.502;2024-03-02T13:12:32;15.70;99.90
2010;DHT22;1008;47.404;8.502;2024-03-02T13:14:59;15.60;99.90
2010;DHT22;1008;47.404;8.502;2024-03-02T13:17:27;15.70;99.90
2010;DHT22;1008;47.404;8.502;2024-03-02T13:19:55;15.90;99.90
2010;DHT22;1008;47.404;8.502;2024-03-02T13:22:24;16.30;99.90
2010;DHT22;1008;47.404;8.502;2024-03-02T13:24:51;16.40;97.20
2010;DHT22;1008;47.404;8.502;2024-03-02T13:27:20;16.30;98.00
2010;DHT22;1008;47.404;8.502;2024-03-02T13:29:47;16.20;96.30
2010;DHT22;1008;47.404;8.502;2024-03-02T13:32:14;15.50;95.80
2010;DHT22;1008;47.404;8.502;2024-03-02T13:34:40;15.20;96.80
2010;DHT22;1008;47.404;8.502;2024-03-02T13:37:07;14.90;97.60
2010;DHT22;1008;47.404;8.502;2024-03-02T13:39:35;15.00;98.80
2010;DHT22;1008;47.404;8.502;2024-03-02T13:42:07;15.00;97.70
2010;DHT22;1008;47.404;8.502;2024-03-02T13:44:34;15.00;98.40
2010;DHT22;1008;47.404;8.502;2024-03-02T13:47:01;14.80;98.40
2010;DHT22;1008;47.404;8.502;2024-03-02T13:49:28;14.60;98.70
2010;DHT22;1008;47.404;8.502;2024-03-02T13:51:59;14.40;99.90
2010;DHT22;1008;47.404;8.502;2024-03-02T13:54:28;14.40;99.90
2010;DHT22;1008;47.404;8.502;2024-03-02T13:56:56;14.30;99.90
2010;DHT22;1008;47.404;8.502;2024-03-02T13:59:24;14.20;99.90
2010;DHT22;1008;47.404;8.502;2024-03-02T14:01:51;14.20;99.90
2010;DHT22;1008;47.404;8.502;2024-03-02T14:04:18;14.20;99.90
2010;DHT22;1008;47.404;8.502;2024-03-02T14:06:45;14.20;99.90
2010;DHT22;1008;47.404;8.502;2024-03-02T14:09:11;14.20;99.90
2010;DHT22;1008;47.404;8.502;2024-03-02T14:11:38;14.20;99.90
2010;DHT22;1008;47.404;8.502;2024-03-02T14:14:06;14.10;99.90
2010;DHT22;1008;47.404;8.502;2024-03-02T14:16:33;14.00;99.90
2010;DHT22;1008;47.404;8.502;2024-03-02T14:19:00;13.90;99.90
2010;DHT22;1008;47.404;8.502;2024-03-02T14:21:27;13.70;99.90
2010;DHT22;1008;47.404;8.502;2024-03-02T14:23:53;13.70;99.90
2010;DHT22;1008;47.404;8.502;2024-03-02T14:26:21;13.70;99.90
2010;DHT22;1008;47.404;8.502;2024-03-02T14:28:47;13.60;99.90
2010;DHT22;1008;47.404;8.502;2024-03-02T14:31:15;13.70;99.90
2010;DHT22;1008;47.404;8.502;2024-03-02T14:33:43;13.60;99.90
2010;DHT22;1008;47.404;8.502;2024-03-02T14:36:09;13.50;99.90
2010;DHT22;1008;47.404;8.502;2024-03-02T14:38:36;13.40;99.90
2010;DHT22;1008;47.404;8.502;2024-03-02T14:41:03;13.30;99.90
2010;DHT22;1008;47.404;8.502;2024-03-02T14:43:30;13.30;99.90
2010;DHT22;1008;47.404;8.502;2024-03-02T14:45:57;13.30;99.90
2010;DHT22;1008;47.404;8.502;2024-03-02T14:48:26;13.30;99.90
2010;DHT22;1008;47.404;8.502;2024-03-02T14:50:52;13.00;99.90
2010;DHT22;1008;47.404;8.502;2024-03-02T14:53:19;13.10;99.90
2010;DHT22;1008;47.404;8.502;2024-03-02T14:55:46;13.00;99.90
2010;DHT22;1008;47.404;8.502;2024-03-02T14:58:12;13.10;99.90
2010;DHT22;1008;47.404;8.502;2024-03-02T15:00:39;13.20;99.90
2010;DHT22;1008;47.404;8.502;2024-03-02T15:03:06;13.00;99.90
2010;DHT22;1008;47.404;8.502;2024-03-02T15:05:35;12.90;99.90
2010;DHT22;1008;47.404;8.502;2024-03-02T15:08:02;12.80;99.90
2010;DHT22;1008;47.404;8.502;2024-03-02T15:10:30;12.90;99.90
2010;DHT22;1008;47.404;8.502;2024-03-02T15:12:57;12.90;99.90
2010;DHT22;1008;47.404;8.502;2024-03-02T15:15:24;12.80;99.90
2010;DHT22;1008;47.404;8.502;2024-03-02T15:17:52;12.70;99.90
2010;DHT22;1008;47.404;8.502;2024-03-02T15:20:18;12.80;99.90
2010;DHT22;1008;47.404;8.502;2024-03-02T15:22:47;12.70;99.90
2010;DHT22;1008;47.404;8.502;2024-03-02T15:25:15;12.80;99.90
2010;DHT22;1008;47.404;8.502;2024-03-02T15:27:41;12.70;99.90
2010;DHT22;1008;47.404;8.502;2024-03-02T15:30:09;12.50;99.90
2010;DHT22;1008;47.404;8.502;2024-03-02T15:32:35;12.60;99.90
2010;DHT22;1008;47.404;8.502;2024-03-02T15:35:04;12.60;99.90
2010;DHT22;1008;47.404;8.502;2024-03-02T15:37:31;12.70;99.90
2010;DHT22;1008;47.404;8.502;2024-03-02T15:39:59;12.70;99.90
2010;DHT22;1008;47.404;8.502;2024-03-02T15:42:31;12.60;99.90
2010;DHT22;1008;47.404;8.502;2024-03-02T15:44:58;12.70;99.90
2010;DHT22;1008;47.404;8.502;2024-03-02T15:47:24;12.80;99.90
2010;DHT22;1008;47.404;8.502;2024-03-02T15:49:51;12.90;99.90
2010;DHT22;1008;47.404;8.502;2024-03-02T15:52:18;12.90;99.90
2010;DHT22;1008;47.404;8.502;2024-03-02T15:54:46;12.80;99.90
2010;DHT22;1008;47.404;8.502;2024-03-02T15:57:14;12.80;99.90
2010;DHT22;1008;47.404;8.502;2024-03-02T15:59:41;13.00;99.90
2010;DHT22;1008;47.404;8.502;2024-03-02T16:02:08;13.00;99.90
2010;DHT22;1008;47.404;8.502;2024-03-02T16:04:35;13.00;99.90
2010;DHT22;1008;47.404;8.502;2024-03-02T16:07:02;13.10;99.90
2010;DHT22;1008;47.404;8.502;2024-03-02T16:09:29;13.40;99.90
2010;DHT22;1008;47.404;8.502;2024-03-02T16:11:55;13.60;99.90
2010;DHT22;1008;47.404;8.502;2024-03-02T16:14:22;13.90;99.90
2010;DHT22;1008;47.404;8.502;2024-03-02T16:16:49;14.10;99.90